createdAt,value
2023-04-28T11:01:45.977Z,102.25
2023-04-28T11:03:42.639Z,98.40
2023-04-28T11:05:15.143Z,111.75
2023-04-28T11:06:47.672Z,115.00
2023-04-28T11:08:25.871Z,115.50
2023-04-28T11:09:57.993Z,120.50
2023-04-28T11:11:30.796Z,109.00
2023-04-28T11:13:34.652Z,139.75
2023-04-28T11:15:12.906Z,125.25
2023-04-28T11:16:59.998Z,110.75
2023-04-28T11:18:56.154Z,111.75
2023-04-28T11:20:28.248Z,129.00
2023-04-28T11:22:01.484Z,121.50
2023-04-28T11:23:33.399Z,111.00
2023-04-28T11:25:05.704Z,107.50
2023-04-28T11:26:38.644Z,121.25
2023-04-28T11:28:10.882Z,123.50
2023-04-28T11:29:44.006Z,103.75
2023-04-28T11:31:20.897Z,104.75
2023-04-28T11:32:52.994Z,128.25
2023-04-28T11:34:24.960Z,109.25
2023-04-28T11:35:57.220Z,108.20
2023-04-28T11:37:29.177Z,108.25
2023-04-28T11:39:01.457Z,112.20
2023-04-28T11:40:33.409Z,112.50
2023-04-28T11:42:11.366Z,102.00
2023-04-28T11:43:47.346Z,101.00
2023-04-28T11:45:20.157Z,111.60
2023-04-28T11:46:56.408Z,93.80
2023-04-28T11:48:28.324Z,110.40
2023-04-28T11:50:01.534Z,99.40
2023-04-28T11:51:38.411Z,99.40
2023-04-28T11:53:10.376Z,121.00
2023-04-28T11:54:43.804Z,114.25
2023-04-28T11:56:15.710Z,121.00
2023-04-28T11:57:47.605Z,105.50
2023-04-28T12:01:11.386Z,89.60
2023-04-28T12:02:43.460Z,95.25
2023-04-28T12:04:36.585Z,96.00
2023-04-28T12:06:08.734Z,107.20
2023-04-28T12:07:43.217Z,105.00
2023-04-28T12:09:19.609Z,112.80
2023-04-28T12:11:11.243Z,106.80
2023-04-28T12:12:50.638Z,99.00
2023-04-28T12:14:25.096Z,101.00
2023-04-28T12:15:58.656Z,107.00
2023-04-28T12:17:32.148Z,90.00
2023-04-28T12:19:08.251Z,98.60
2023-04-28T12:20:40.988Z,99.60
2023-04-28T12:22:13.046Z,95.40
2023-04-28T12:23:45.696Z,100.60
2023-04-28T12:25:19.629Z,103.40
2023-04-28T12:26:51.611Z,112.75
2023-04-28T12:28:23.638Z,112.75
2023-04-28T12:29:56.724Z,104.40
2023-04-28T12:31:29.190Z,108.40
2023-04-28T12:33:01.339Z,109.80
2023-04-28T12:34:33.768Z,101.20
2023-04-28T12:36:06.807Z,99.20
2023-04-28T12:37:40.084Z,97.40
2023-04-28T12:39:16.752Z,97.60
2023-04-28T12:40:49.049Z,100.40
2023-04-28T12:42:23.129Z,103.60
2023-04-28T12:43:55.848Z,106.00
2023-04-28T12:45:28.015Z,103.75
2023-04-28T12:47:00.577Z,105.40
2023-04-28T12:48:32.497Z,97.40
2023-04-28T12:50:05.478Z,106.25
2023-04-28T12:51:39.929Z,119.00
2023-04-28T12:53:12.268Z,111.50
2023-04-28T12:54:47.282Z,103.20
2023-04-28T12:56:19.373Z,124.20
2023-04-28T12:57:51.871Z,100.20
2023-04-28T12:59:24.167Z,103.20
2023-04-28T13:00:56.191Z,109.25
2023-04-28T13:02:28.591Z,110.00
2023-04-28T13:04:00.952Z,107.75
2023-04-28T13:05:35.193Z,122.25
2023-04-28T13:07:07.664Z,129.75
2023-04-28T13:08:39.689Z,125.50
2023-04-28T13:10:13.145Z,134.75
2023-04-28T13:11:45.488Z,133.50
2023-04-28T13:13:17.494Z,147.00
2023-04-28T13:14:49.524Z,139.25
2023-04-28T13:16:21.438Z,175.50
2023-04-28T13:17:53.681Z,160.75
2023-04-28T13:19:25.944Z,163.50
2023-04-28T13:20:57.954Z,145.00
2023-04-28T13:22:30.019Z,145.25
2023-04-28T13:24:02.177Z,169.25
2023-04-28T13:25:34.196Z,151.25
2023-04-28T13:27:10.017Z,166.50
2023-04-28T13:28:42.523Z,169.00
2023-04-28T13:30:14.892Z,153.25
2023-04-28T13:31:47.104Z,156.25
2023-04-28T13:33:19.368Z,144.50
2023-04-28T13:34:51.767Z,159.00
2023-04-28T13:36:24.107Z,149.25
2023-04-28T13:38:01.915Z,155.25
2023-04-28T13:39:33.848Z,138.50
2023-04-28T13:41:05.762Z,142.75
2023-04-28T13:42:37.766Z,150.00
2023-04-28T13:44:09.783Z,150.75
2023-04-28T13:45:42.036Z,181.25
2023-04-28T13:47:14.062Z,173.00
2023-04-28T13:48:46.266Z,167.50
2023-04-28T13:50:18.639Z,161.25
2023-04-28T13:51:50.899Z,163.50
2023-04-28T13:53:22.914Z,156.00
2023-04-28T13:54:54.902Z,148.75
2023-04-28T13:56:27.054Z,137.25
2023-04-28T13:58:02.798Z,123.00
2023-04-28T13:59:34.815Z,117.00
2023-04-28T14:01:07.631Z,113.00
2023-04-28T14:02:40.128Z,122.50
2023-04-28T14:04:12.462Z,100.60
2023-04-28T14:05:49.410Z,83.00
2023-04-28T14:07:22.305Z,85.25
2023-04-28T14:08:54.804Z,84.75
2023-04-28T14:10:27.040Z,81.50
2023-04-28T14:11:59.453Z,93.00
2023-04-28T14:13:31.609Z,77.00
2023-04-28T14:15:03.922Z,64.00
2023-04-28T14:16:35.896Z,65.75
2023-04-28T14:18:08.124Z,55.25
2023-04-28T14:19:40.492Z,54.00
2023-04-28T14:21:13.533Z,50.50
2023-04-28T14:22:45.915Z,48.60
2023-04-28T14:24:19.009Z,48.00
2023-04-28T14:25:55.735Z,47.40
2023-04-28T14:27:29.605Z,47.00
2023-04-28T14:29:01.760Z,44.80
2023-04-28T14:30:33.683Z,43.80
2023-04-28T14:32:05.869Z,46.00
2023-04-28T14:33:37.991Z,54.00
2023-04-28T14:35:11.438Z,44.60
2023-04-28T14:36:43.480Z,46.40
2023-04-28T14:38:15.514Z,43.40
2023-04-28T14:39:47.451Z,43.20
2023-04-28T14:41:19.362Z,43.20
2023-04-28T14:42:51.648Z,40.40
2023-04-28T14:44:24.003Z,39.80
2023-04-28T14:45:56.415Z,38.80
2023-04-28T14:47:28.839Z,43.00
2023-04-28T14:49:01.204Z,44.80
2023-04-28T14:50:33.697Z,42.20
2023-04-28T14:52:05.798Z,36.20
2023-04-28T14:53:37.773Z,37.40
2023-04-28T14:55:10.075Z,36.20
2023-04-28T14:56:42.270Z,35.80
2023-04-28T14:58:14.649Z,35.20
2023-04-28T14:59:46.877Z,36.80
2023-04-28T15:01:19.752Z,35.20
2023-04-28T15:02:51.986Z,35.80
2023-04-28T15:04:31.175Z,36.80
2023-04-28T15:06:03.673Z,33.00
2023-04-28T15:07:35.864Z,33.80
2023-04-28T15:09:07.885Z,35.80
2023-04-28T15:10:39.835Z,36.20
2023-04-28T15:12:11.856Z,36.00
2023-04-28T15:13:43.853Z,32.40
2023-04-28T15:15:15.758Z,26.80
2023-04-28T15:16:48.407Z,35.00
2023-04-28T15:18:21.210Z,30.00
2023-04-28T15:19:53.038Z,33.60
2023-04-28T15:21:25.045Z,33.60
2023-04-28T15:22:57.598Z,32.00
2023-04-28T15:24:29.973Z,32.20
2023-04-28T15:26:02.070Z,31.80
2023-04-28T15:27:34.423Z,36.00
2023-04-28T15:29:06.510Z,28.20
2023-04-28T15:30:39.476Z,34.00
2023-04-28T15:32:11.259Z,31.00
2023-04-28T15:33:43.160Z,28.00
2023-04-28T15:35:15.236Z,32.60
2023-04-28T15:36:47.111Z,27.40
2023-04-28T15:38:19.214Z,32.60
2023-04-28T15:39:51.117Z,28.80
2023-04-28T15:41:23.034Z,30.60
2023-04-28T15:42:55.362Z,31.00
2023-04-28T15:44:29.306Z,28.00
2023-04-28T15:46:04.051Z,27.80
2023-04-28T15:47:36.625Z,26.40
2023-04-28T15:49:08.984Z,31.00
2023-04-28T15:50:41.680Z,28.00
2023-04-28T15:52:14.383Z,27.60
2023-04-28T15:53:46.441Z,29.60
2023-04-28T15:55:19.631Z,27.60
2023-04-28T15:56:51.837Z,22.60
2023-04-28T15:58:24.154Z,25.00
2023-04-28T15:59:56.288Z,21.40
2023-04-28T16:01:28.831Z,23.40
2023-04-28T16:03:01.639Z,19.20
2023-04-28T16:04:33.746Z,22.40
2023-04-28T16:06:06.758Z,28.60
2023-04-28T16:07:41.034Z,25.00
2023-04-28T16:09:13.137Z,26.20
2023-04-28T16:10:45.127Z,25.60
2023-04-28T16:12:17.073Z,25.00
2023-04-28T16:13:50.124Z,19.00
2023-04-28T16:15:22.066Z,24.80
2023-04-28T16:16:54.157Z,21.80
2023-04-28T16:18:26.338Z,25.20
2023-04-28T16:19:58.372Z,23.00
2023-04-28T16:21:30.970Z,23.80
2023-04-28T16:23:03.441Z,21.40
2023-04-28T16:24:37.281Z,20.20
2023-04-28T16:26:09.514Z,18.40
2023-04-28T16:27:41.878Z,23.40
2023-04-28T16:29:14.558Z,23.20
2023-04-28T16:30:47.229Z,19.80
2023-04-28T16:32:19.470Z,21.40
2023-04-28T16:33:51.850Z,17.80
2023-04-28T16:35:25.302Z,20.80
2023-04-28T16:36:57.290Z,20.40
2023-04-28T16:38:29.342Z,20.60
2023-04-28T16:40:01.573Z,21.00
2023-04-28T16:41:33.606Z,18.20
2023-04-28T16:43:05.725Z,21.40
2023-04-28T16:44:37.772Z,21.40
2023-04-28T16:46:10.083Z,21.40
2023-04-28T16:47:46.431Z,19.80
2023-04-28T16:49:18.485Z,18.40
2023-04-28T16:50:50.500Z,17.60
2023-04-28T16:52:22.433Z,19.80
2023-04-28T16:53:54.612Z,16.60
2023-04-28T16:55:27.001Z,18.40
2023-04-28T16:56:59.453Z,11.20
2023-04-28T16:58:31.715Z,17.60
2023-04-28T17:00:05.137Z,19.80
2023-04-28T17:01:37.553Z,19.20
2023-04-28T17:03:09.731Z,14.00
2023-04-28T17:04:42.390Z,18.60
2023-04-28T17:06:14.728Z,16.80
2023-04-28T17:07:46.939Z,17.00
2023-04-28T17:09:19.392Z,20.00
2023-04-28T17:10:51.286Z,15.60
2023-04-28T17:12:23.534Z,22.80
2023-04-28T17:13:55.474Z,20.40
2023-04-28T17:15:27.427Z,21.20
2023-04-28T17:16:59.285Z,19.20
2023-04-28T17:18:31.432Z,21.40
2023-04-28T17:20:04.664Z,20.20
2023-04-28T17:21:36.629Z,20.80
2023-04-28T17:23:08.431Z,22.00
2023-04-28T17:24:40.285Z,21.80
2023-04-28T17:26:12.357Z,21.80
2023-04-28T17:27:44.321Z,16.40
2023-04-28T17:29:16.493Z,24.60
2023-04-28T17:30:48.529Z,27.00
2023-04-28T17:32:20.496Z,24.60
2023-04-28T17:33:53.196Z,21.60
2023-04-28T17:35:25.988Z,25.20
2023-04-28T17:36:58.108Z,22.00
2023-04-28T17:38:30.026Z,22.00
2023-04-28T17:40:02.120Z,20.20
2023-04-28T17:41:33.990Z,23.00
2023-04-28T17:43:06.199Z,19.20
2023-04-28T17:44:38.175Z,22.80
2023-04-28T17:46:12.120Z,24.20
2023-04-28T17:47:44.120Z,23.00
2023-04-28T17:49:16.514Z,14.20
2023-04-28T17:50:48.558Z,23.20
2023-04-28T17:52:20.877Z,29.40
2023-04-28T17:53:52.787Z,40.60
2023-04-28T17:55:24.971Z,46.00
2023-04-28T17:56:57.368Z,46.60
2023-04-28T17:58:29.864Z,48.00
2023-04-28T18:00:01.837Z,51.50
2023-04-28T18:01:43.882Z,50.75
2023-04-28T18:03:16.054Z,51.25
2023-04-28T18:04:49.184Z,52.25
2023-04-28T18:06:22.488Z,56.75
2023-04-28T18:07:54.484Z,57.00
2023-04-28T18:09:27.283Z,65.00
2023-04-28T18:10:59.917Z,76.50
2023-04-28T18:12:31.766Z,77.50
2023-04-28T18:14:03.702Z,81.25
2023-04-28T18:15:35.678Z,83.50
2023-04-28T18:17:07.616Z,82.75
2023-04-28T18:18:39.614Z,88.75
2023-04-28T18:20:12.427Z,99.20
2023-04-28T18:21:44.419Z,99.40
2023-04-28T18:23:16.276Z,103.00
2023-04-28T18:24:51.346Z,98.40
2023-04-28T18:26:23.407Z,98.20
2023-04-28T18:27:55.459Z,102.00
2023-04-28T18:29:27.509Z,104.20
2023-04-28T18:31:02.301Z,109.75
2023-04-28T18:32:34.515Z,95.75
2023-04-28T18:34:06.695Z,108.20
2023-04-28T18:35:38.649Z,110.00
2023-04-28T18:37:10.973Z,106.50
2023-04-28T18:38:42.990Z,106.00
2023-04-28T18:40:15.030Z,110.80
2023-04-28T18:41:46.969Z,106.80
2023-04-28T18:43:18.791Z,108.20
2023-04-28T18:44:58.480Z,108.75
2023-04-28T18:46:30.915Z,103.75
2023-04-28T18:48:04.156Z,105.25
2023-04-28T18:49:38.252Z,101.50
2023-04-28T18:51:10.400Z,106.75
2023-04-28T18:52:42.369Z,123.00
2023-04-28T18:54:17.254Z,122.25
2023-04-28T18:55:49.213Z,126.75
2023-04-28T18:57:21.312Z,119.00
2023-04-28T18:58:53.228Z,121.75
2023-04-28T19:00:25.690Z,120.25
2023-04-28T19:01:58.509Z,122.00
2023-04-28T19:03:31.796Z,129.50
2023-04-28T19:05:05.829Z,132.00
2023-04-28T19:06:37.832Z,120.00
2023-04-28T19:08:11.877Z,128.00
2023-04-28T19:09:44.042Z,136.50
2023-04-28T19:11:15.900Z,128.00
2023-04-28T19:12:47.903Z,163.75
2023-04-28T19:14:19.941Z,255.50
2023-04-28T19:15:56.494Z,152.75
2023-04-28T19:17:28.945Z,190.00
2023-04-28T19:19:01.196Z,180.50
2023-04-28T19:20:33.747Z,187.00
2023-04-28T19:22:05.741Z,179.50
2023-04-28T19:23:39.540Z,167.75
2023-04-28T19:25:11.830Z,168.25
2023-04-28T19:26:43.761Z,169.25
2023-04-28T19:28:15.814Z,165.50
2023-04-28T19:29:47.851Z,159.50
2023-04-28T19:31:20.022Z,166.25
2023-04-28T19:32:52.065Z,160.50
2023-04-28T19:34:24.113Z,159.75
2023-04-28T19:35:56.101Z,158.00
2023-04-28T19:37:28.189Z,166.50
2023-04-28T19:39:00.203Z,150.00
2023-04-28T19:40:32.426Z,151.75
2023-04-28T19:42:07.204Z,146.25
2023-04-28T19:43:39.143Z,152.75
2023-04-28T19:45:11.628Z,149.00
2023-04-28T19:46:46.084Z,148.75
2023-04-28T19:48:19.046Z,156.25
2023-04-28T19:49:52.207Z,152.50
2023-04-28T19:51:24.647Z,137.50
2023-04-28T19:52:57.313Z,143.25
2023-04-28T19:54:29.258Z,136.50
2023-04-28T19:56:02.172Z,141.00
2023-04-28T19:57:34.031Z,129.75
2023-04-28T19:59:06.191Z,133.25
2023-04-28T20:00:37.990Z,125.50
2023-04-28T20:02:10.403Z,123.75
2023-04-28T20:03:42.512Z,132.25
2023-04-28T20:05:15.242Z,129.25
2023-04-28T20:06:47.888Z,120.00
2023-04-28T20:08:20.188Z,123.25
2023-04-28T20:09:52.861Z,121.50
2023-04-28T20:11:25.057Z,105.75
2023-04-28T20:12:57.210Z,115.50
2023-04-28T20:14:29.599Z,112.25
2023-04-28T20:16:01.756Z,110.00
2023-04-28T20:17:33.921Z,110.40
2023-04-28T20:19:05.868Z,112.20
2023-04-28T20:20:37.776Z,105.75
2023-04-28T20:22:09.644Z,112.00
2023-04-28T20:23:41.838Z,117.75
2023-04-28T20:25:13.837Z,121.25
2023-04-28T20:26:46.029Z,120.75
2023-04-28T20:28:17.901Z,113.50
2023-04-28T20:29:50.140Z,118.00
2023-04-28T20:31:23.690Z,109.50
2023-04-28T20:32:55.766Z,125.75
2023-04-28T20:34:28.041Z,121.50
2023-04-28T20:36:00.069Z,157.00
2023-04-28T20:37:32.429Z,185.00
2023-04-28T20:39:04.545Z,190.67
2023-04-28T20:40:37.273Z,155.25
2023-04-28T20:42:10.253Z,150.00
2023-04-28T20:43:42.297Z,123.50
2023-04-28T20:45:14.189Z,134.00
2023-04-28T20:46:46.305Z,128.25
2023-04-28T20:48:19.711Z,124.50
2023-04-28T20:49:51.769Z,129.50
2023-04-28T20:51:24.221Z,123.50
2023-04-28T20:52:56.154Z,122.25
2023-04-28T20:54:28.135Z,125.00
2023-04-28T20:56:00.090Z,135.75
2023-04-28T20:57:32.042Z,134.75
2023-04-28T20:59:03.943Z,133.25
2023-04-28T21:00:40.232Z,132.50
2023-04-28T21:02:12.389Z,136.25
2023-04-28T21:03:44.708Z,134.00
2023-04-28T21:05:17.738Z,140.00
2023-04-28T21:06:51.499Z,134.50
2023-04-28T21:08:23.376Z,135.50
2023-04-28T21:09:55.443Z,123.50
2023-04-28T21:11:27.383Z,139.50
2023-04-28T21:12:59.397Z,140.25
2023-04-28T21:14:31.386Z,134.75
2023-04-28T21:16:03.270Z,135.25
2023-04-28T21:17:35.273Z,134.25
2023-04-28T21:19:07.670Z,133.50
2023-04-28T21:20:39.618Z,128.00
2023-04-28T21:22:11.832Z,133.25
2023-04-28T21:23:44.427Z,121.75
2023-04-28T21:25:16.538Z,132.75
2023-04-28T21:26:48.408Z,120.50
2023-04-28T21:28:20.349Z,118.50
2023-04-28T21:29:52.946Z,117.25
2023-04-28T21:31:25.553Z,127.25
2023-04-28T21:32:57.549Z,120.75
2023-04-28T21:34:29.592Z,123.25
2023-04-28T21:36:05.655Z,109.75
2023-04-28T21:37:37.698Z,126.50
2023-04-28T21:39:09.720Z,125.75
2023-04-28T21:40:41.637Z,124.75
2023-04-28T21:42:13.519Z,123.50
2023-04-28T21:43:45.484Z,119.25
2023-04-28T21:45:17.552Z,128.50
2023-04-28T21:46:49.487Z,129.50
2023-04-28T21:48:21.510Z,120.50
2023-04-28T21:49:53.494Z,130.50
2023-04-28T21:51:25.435Z,133.75
2023-04-28T21:52:57.390Z,117.25
2023-04-28T21:54:29.245Z,125.25
2023-04-28T21:56:01.323Z,129.50
2023-04-28T21:57:33.332Z,125.25
2023-04-28T21:59:05.429Z,136.00
2023-04-28T22:00:39.649Z,115.00
2023-04-28T22:02:12.813Z,121.25
2023-04-28T22:03:46.041Z,128.75
2023-04-28T22:05:18.469Z,120.75
2023-04-28T22:06:50.391Z,123.50
2023-04-28T22:08:22.334Z,128.50
2023-04-28T22:09:54.576Z,120.25
2023-04-28T22:11:26.496Z,110.75
2023-04-28T22:12:58.397Z,112.75
2023-04-28T22:16:06.086Z,108.75
2023-04-28T22:17:38.121Z,105.00
2023-04-28T22:19:10.052Z,98.00
2023-04-28T22:20:42.074Z,112.20
2023-04-28T22:22:13.998Z,101.60
2023-04-28T22:23:45.944Z,110.40
2023-04-28T22:25:32.922Z,94.60
2023-04-28T22:27:04.944Z,108.40
2023-04-28T22:28:37.720Z,103.60
2023-04-28T22:30:10.139Z,91.20
2023-04-28T22:31:42.344Z,96.20
2023-04-28T22:33:14.513Z,87.60
2023-04-28T22:34:46.490Z,83.50
